Time;durP1;ratioP1;P1;durP2;ratioP2;P2;SDS_P1;SDS_P2;PMS_P1;PMS_P2;Temp;Humidity;BMP_temperature;BMP_pressure;BME280_temperature;BME280_humidity;BME280_pressure;Samples;Min_cycle;Max_cycle;Signal;HPM_P1;HPM_P2
2021/10/09 00:00:00;;;;;;;61.70;35.85;;;;;;;9.83;90.65;101621.34;5051855;28;20057;-53
2021/10/09 00:02:26;;;;;;;56.33;35.03;;;;;;;9.74;90.65;101622.47;5050408;28;20048;-54
2021/10/09 00:04:53;;;;;;;58.17;35.47;;;;;;;9.71;91.43;101619.00;5040815;28;20044;-53
2021/10/09 00:07:19;;;;;;;54.55;33.58;;;;;;;9.67;90.92;101617.34;5051623;28;20109;-52
2021/10/09 00:09:47;;;;;;;53.25;33.47;;;;;;;9.61;91.32;101622.75;5051983;28;20124;-52
2021/10/09 00:12:13;;;;;;;56.33;33.95;;;;;;;9.57;91.72;101623.75;5050606;28;20498;-53
2021/10/09 00:14:40;;;;;;;55.13;33.88;;;;;;;9.54;91.86;101614.13;5053056;28;20322;-53
2021/10/09 00:17:08;;;;;;;55.80;34.60;;;;;;;9.55;92.08;101621.16;5052699;28;20055;-53
2021/10/09 00:19:35;;;;;;;55.47;34.40;;;;;;;9.60;91.71;101611.31;5051575;28;20045;-53
2021/10/09 00:22:01;;;;;;;56.13;34.25;;;;;;;9.58;91.55;101620.22;5048492;28;20052;-51
2021/10/09 00:24:28;;;;;;;59.80;34.47;;;;;;;9.54;92.02;101616.75;5053428;28;20060;-52
2021/10/09 00:26:54;;;;;;;56.13;33.95;;;;;;;9.60;91.71;101613.13;5050783;28;20062;-52
2021/10/09 00:29:21;;;;;;;54.58;33.67;;;;;;;9.56;91.45;101619.38;5052251;28;20052;-53
2021/10/09 00:31:47;;;;;;;53.33;34.10;;;;;;;9.51;91.58;101624.75;5053465;28;20505;-53
2021/10/09 00:34:14;;;;;;;54.88;34.63;;;;;;;9.48;92.19;101624.81;5050982;28;20044;-53
2021/10/09 00:36:40;;;;;;;59.92;34.13;;;;;;;9.48;91.53;101619.53;5049687;28;20052;-54
2021/10/09 00:39:07;;;;;;;53.58;33.33;;;;;;;9.44;91.79;101618.72;5053736;28;20053;-54
2021/10/09 00:41:33;;;;;;;54.25;33.45;;;;;;;9.39;91.86;101619.75;5051571;28;20044;-53
2021/10/09 00:44:15;;;;;;;59.90;35.53;;;;;;;9.41;91.63;101608.25;5048470;28;20051;-52
2021/10/09 00:46:43;;;;;;;53.85;32.75;;;;;;;9.40;91.38;101606.50;5049728;28;20049;-53
2021/10/09 00:49:19;;;;;;;58.35;36.50;;;;;;;9.35;91.92;101611.00;5051071;28;20071;-54
2021/10/09 00:51:47;;;;;;;58.67;35.40;;;;;;;9.27;92.02;101604.19;5052104;28;20051;-53
2021/10/09 00:54:15;;;;;;;62.65;35.97;;;;;;;9.26;92.13;101605.94;5047032;28;20041;-52
2021/10/09 00:56:43;;;;;;;55.30;33.65;;;;;;;9.23;92.21;101610.44;5053540;28;20833;-53
2021/10/09 00:59:10;;;;;;;58.42;34.85;;;;;;;9.21;92.02;101605.16;5056427;28;20048;-54
2021/10/09 01:01:36;;;;;;;57.97;34.95;;;;;;;9.15;92.46;101603.53;5056049;28;22786;-53
2021/10/09 01:04:05;;;;;;;57.42;34.63;;;;;;;9.11;92.95;101603.66;5054326;28;20052;-54
2021/10/09 01:06:32;;;;;;;59.75;34.83;;;;;;;9.07;92.93;101599.31;5055145;28;20082;-53
2021/10/09 01:09:00;;;;;;;59.83;36.05;;;;;;;9.01;93.03;101586.22;5052017;28;20417;-52
2021/10/09 01:11:28;;;;;;;57.30;34.25;;;;;;;9.02;93.21;101595.91;5056113;28;20052;-53
2021/10/09 01:13:55;;;;;;;57.33;34.92;;;;;;;8.79;93.44;101560.28;5054209;28;20044;-52
2021/10/09 01:16:24;;;;;;;59.58;33.92;;;;;;;8.98;93.95;101588.94;5052345;28;20045;-52
2021/10/09 01:18:52;;;;;;;54.72;33.60;;;;;;;8.93;93.81;101583.78;5054714;28;20048;-52
2021/10/09 01:21:20;;;;;;;56.05;34.35;;;;;;;8.95;94.12;101586.38;5054045;28;20053;-53
2021/10/09 01:23:47;;;;;;;57.50;34.13;;;;;;;8.96;93.87;101586.34;5039031;28;20063;-51
2021/10/09 01:26:14;;;;;;;57.70;34.03;;;;;;;8.94;93.74;101588.16;5054720;28;20056;-53
2021/10/09 01:28:51;;;;;;;61.70;33.55;;;;;;;8.92;93.99;101584.66;5057133;28;20051;-54
2021/10/09 01:31:19;;;;;;;56.13;33.35;;;;;;;8.89;94.46;101578.56;5056079;28;20058;-52
2021/10/09 01:33:45;;;;;;;57.42;33.42;;;;;;;8.89;94.25;101583.84;5056087;28;20048;-53
2021/10/09 01:36:12;;;;;;;52.85;32.17;;;;;;;8.82;94.40;101569.03;5053887;28;20565;-52
2021/10/09 01:38:39;;;;;;;54.13;32.47;;;;;;;8.82;94.44;101576.94;5057574;28;20079;-53
2021/10/09 01:41:07;;;;;;;55.50;34.22;;;;;;;8.81;94.52;101577.88;5056751;28;20086;-51
2021/10/09 01:43:33;;;;;;;60.80;35.45;;;;;;;8.78;94.79;101579.69;5052795;28;20040;-53
2021/10/09 01:46:00;;;;;;;61.78;34.53;;;;;;;8.78;94.41;101570.88;5055693;28;20067;-53
2021/10/09 01:48:36;;;;;;;56.55;34.45;;;;;;;8.77;94.10;101572.66;5054214;28;20083;-53
2021/10/09 01:51:04;;;;;;;58.45;34.05;;;;;;;8.72;94.28;101571.88;5057266;28;20045;-53
2021/10/09 01:53:31;;;;;;;60.08;35.15;;;;;;;8.70;94.46;101575.44;5056592;28;20402;-53
2021/10/09 01:55:58;;;;;;;57.33;35.00;;;;;;;8.68;94.93;101575.47;5055211;28;20052;-52
2021/10/09 01:58:24;;;;;;;57.42;33.72;;;;;;;8.66;94.95;101573.75;5054843;28;20510;-53
2021/10/09 02:00:51;;;;;;;61.17;34.50;;;;;;;8.66;95.15;101574.63;5053716;28;20521;-54
2021/10/09 02:03:21;;;;;;;55.35;34.38;;;;;;;8.65;95.02;101572.03;5055131;28;20066;-54
2021/10/09 02:05:48;;;;;;;65.60;35.15;;;;;;;8.63;95.39;101574.72;5054034;28;20056;-54
2021/10/09 02:08:15;;;;;;;60.05;34.70;;;;;;;8.60;95.54;101569.47;5056794;28;20055;-54
2021/10/09 02:10:49;;;;;;;64.43;36.35;;;;;;;8.64;95.02;101565.91;5054123;28;20044;-51
2021/10/09 02:13:20;;;;;;;59.83;33.95;;;;;;;8.69;94.82;101569.28;5050843;28;20485;-53
2021/10/09 02:16:07;;;;;;;55.55;34.00;;;;;;;8.67;94.49;101565.81;5055185;28;21125;-52
2021/10/09 02:26:33;;;;;;;61.65;34.30;;;;;;;8.60;94.64;101552.78;5053335;28;20067;-53
2021/10/09 02:29:00;;;;;;;63.15;35.10;;;;;;;8.65;94.94;101556.19;5055497;28;20051;-55
2021/10/09 02:31:27;;;;;;;59.05;34.75;;;;;;;8.63;95.02;101569.44;5056846;28;20048;-53
2021/10/09 02:33:54;;;;;;;55.75;33.33;;;;;;;8.60;94.93;101564.22;5053402;28;20045;-51
2021/10/09 02:36:21;;;;;;;58.17;33.92;;;;;;;8.57;95.36;101563.38;5053381;28;20087;-52
2021/10/09 02:38:47;;;;;;;58.35;34.25;;;;;;;8.53;95.17;101561.69;5053533;28;20587;-54
2021/10/09 02:41:14;;;;;;;59.25;35.67;;;;;;;8.51;94.59;101572.28;5052611;28;20044;-55
2021/10/09 02:43:40;;;;;;;60.80;35.30;;;;;;;8.54;94.62;101574.00;5053711;28;20040;-53
2021/10/09 02:46:07;;;;;;;60.88;36.10;;;;;;;8.54;94.35;101571.38;5048925;28;20067;-53
2021/10/09 02:48:34;;;;;;;66.78;35.83;;;;;;;8.50;94.63;101569.72;5054551;28;20095;-53
2021/10/09 02:51:00;;;;;;;65.28;35.85;;;;;;;8.45;95.08;101569.78;5054276;28;20048;-55
2021/10/09 02:53:27;;;;;;;65.15;36.00;;;;;;;8.39;95.00;101564.63;5054710;28;20044;-53
2021/10/09 02:55:53;;;;;;;65.15;37.15;;;;;;;8.37;95.66;101566.41;5052457;28;20048;-52
2021/10/09 02:58:20;;;;;;;65.65;36.08;;;;;;;8.36;95.81;101564.66;5050354;28;20059;-52
2021/10/09 03:00:46;;;;;;;61.85;35.53;;;;;;;8.34;96.25;101567.34;5053417;28;20052;-53
2021/10/09 03:03:13;;;;;;;63.70;36.97;;;;;;;8.20;96.35;101544.72;5054324;28;20510;-52
2021/10/09 03:05:39;;;;;;;63.80;36.47;;;;;;;8.32;96.45;101563.00;5054680;28;20041;-53
2021/10/09 03:08:06;;;;;;;63.90;35.65;;;;;;;8.28;96.57;101561.28;5053871;28;20051;-53
2021/10/09 03:10:32;;;;;;;64.35;37.78;;;;;;;8.29;96.40;101568.31;5052880;28;20063;-53
2021/10/09 03:12:59;;;;;;;63.83;35.97;;;;;;;8.24;96.64;101565.75;5052123;28;20041;-54
2021/10/09 03:15:26;;;;;;;64.30;36.42;;;;;;;8.22;96.78;101569.31;5053425;28;20044;-51
2021/10/09 03:17:52;;;;;;;64.70;37.30;;;;;;;8.21;97.31;101572.84;5051182;28;20055;-54
2021/10/09 03:20:19;;;;;;;62.30;36.70;;;;;;;8.19;97.25;101579.91;5051584;28;20600;-54
2021/10/09 03:22:47;;;;;;;61.33;36.00;;;;;;;8.19;97.19;101575.50;5052342;28;20123;-53
2021/10/09 03:25:15;;;;;;;65.88;36.88;;;;;;;8.19;97.40;101578.16;5055507;28;20076;-54
2021/10/09 03:27:42;;;;;;;60.42;36.17;;;;;;;8.21;97.48;101576.34;5057601;28;20037;-53
2021/10/09 03:30:09;;;;;;;60.30;34.78;;;;;;;8.23;97.18;101578.97;5052688;28;20056;-53
2021/10/09 03:32:37;;;;;;;60.03;34.50;;;;;;;8.20;97.42;101573.75;5052520;28;20045;-52
2021/10/09 03:35:04;;;;;;;66.15;37.20;;;;;;;8.21;97.55;101572.84;5054166;28;20049;-52
2021/10/09 03:37:31;;;;;;;60.50;34.63;;;;;;;8.25;96.69;101574.53;5052292;28;20051;-55
2021/10/09 03:40:01;;;;;;;59.67;32.35;;;;;;;8.22;96.76;101574.59;5051342;28;20048;-59
2021/10/09 03:42:36;;;;;;;;;;;;;;;8.22;96.90;101577.22;5054902;28;20044;-53
2021/10/09 03:45:10;;;;;;;57.25;34.17;;;;;;;8.21;96.46;101575.47;5055057;28;19928;-53
2021/10/09 03:52:54;;;;;;;60.53;36.03;;;;;;;8.09;96.28;101572.19;5014600;28;20048;-52
2021/10/09 03:55:21;;;;;;;61.85;36.60;;;;;;;8.14;96.21;101580.03;5054258;28;20055;-53
2021/10/09 03:57:47;;;;;;;60.40;35.25;;;;;;;8.13;96.08;101574.78;5052119;28;20044;-52
2021/10/09 04:00:17;;;;;;;62.08;34.70;;;;;;;8.09;95.88;101576.59;5051309;28;20044;-54
2021/10/09 04:02:44;;;;;;;65.87;35.97;;;;;;;8.03;96.25;101577.56;5052579;28;20052;-54
2021/10/09 04:05:10;;;;;;;64.35;34.90;;;;;;;8.00;96.42;101580.28;5052734;28;20485;-53
2021/10/09 04:07:37;;;;;;;60.58;35.63;;;;;;;8.00;96.68;101579.41;5052076;28;20044;-53
2021/10/09 04:10:06;;;;;;;64.82;36.13;;;;;;;8.02;96.42;101578.47;5053135;28;20409;-54
2021/10/09 04:12:32;;;;;;;63.20;36.38;;;;;;;7.99;96.58;101580.28;5055282;28;20079;-54
2021/10/09 04:14:59;;;;;;;59.53;34.92;;;;;;;8.02;96.51;101581.13;5054482;28;20056;-52
2021/10/09 04:17:25;;;;;;;65.68;36.30;;;;;;;7.99;96.61;101578.53;5051919;28;20635;-53
2021/10/09 04:19:52;;;;;;;64.03;36.30;;;;;;;7.80;97.02;101556.00;5053077;28;20048;-54
2021/10/09 04:22:19;;;;;;;60.60;35.67;;;;;;;7.79;97.07;101556.91;5049958;28;20055;-52
2021/10/09 04:24:45;;;;;;;60.42;35.38;;;;;;;7.94;96.99;101583.00;5056007;28;20055;-54
2021/10/09 04:27:12;;;;;;;64.03;35.50;;;;;;;7.86;97.50;101579.63;5055727;28;20048;-52
2021/10/09 04:29:38;;;;;;;59.22;35.47;;;;;;;7.83;97.85;101582.31;5052706;28;20047;-53
2021/10/09 04:32:05;;;;;;;60.42;35.90;;;;;;;7.82;98.26;101583.22;5050886;28;20410;-52
2021/10/09 04:34:31;;;;;;;59.92;35.22;;;;;;;7.82;98.63;101577.06;5058924;28;20051;-53
2021/10/09 04:36:58;;;;;;;59.85;34.70;;;;;;;7.81;98.20;101578.84;5058729;28;20055;-53
2021/10/09 04:39:25;;;;;;;60.85;34.28;;;;;;;7.80;98.87;101584.13;5060332;28;20052;-51
2021/10/09 04:41:51;;;;;;;58.75;33.67;;;;;;;7.80;99.25;101578.88;5056756;28;20048;-53
2021/10/09 04:44:18;;;;;;;60.67;34.00;;;;;;;7.67;98.74;101565.88;5056662;28;20901;-54
2021/10/09 04:46:44;;;;;;;62.47;35.17;;;;;;;7.65;98.68;101554.50;5059887;28;20044;-53
2021/10/09 04:49:11;;;;;;;61.95;35.08;;;;;;;7.76;98.49;101580.66;5060477;28;20052;-54
2021/10/09 04:51:38;;;;;;;64.25;35.95;;;;;;;7.73;98.73;101573.69;5059316;28;20514;-54
2021/10/09 04:54:04;;;;;;;57.15;33.42;;;;;;;7.77;98.24;101571.88;5056736;28;20375;-52
2021/10/09 04:56:31;;;;;;;56.38;32.72;;;;;;;7.74;98.03;101571.91;5059571;28;20083;-52
2021/10/09 04:58:57;;;;;;;59.83;33.58;;;;;;;7.82;97.99;101572.66;5059078;28;20052;-52
2021/10/09 05:01:24;;;;;;;56.13;32.85;;;;;;;7.82;97.30;101567.41;5058215;28;20521;-53
2021/10/09 05:03:51;;;;;;;59.95;33.22;;;;;;;7.81;97.47;101580.59;5060072;28;20047;-53
2021/10/09 05:06:17;;;;;;;57.55;33.40;;;;;;;7.82;97.40;101574.44;5059854;28;20045;-52
2021/10/09 05:08:44;;;;;;;62.15;35.17;;;;;;;7.76;97.36;101575.41;5062165;28;20052;-52
2021/10/09 05:11:10;;;;;;;62.47;35.38;;;;;;;7.75;97.43;101582.44;5059649;28;20051;-53
2021/10/09 05:13:37;;;;;;;61.10;35.15;;;;;;;7.70;97.43;101576.38;5059447;28;20045;-56
2021/10/09 05:16:03;;;;;;;64.30;36.08;;;;;;;7.69;97.63;101579.91;5058059;28;20052;-52
2021/10/09 05:18:30;;;;;;;61.22;35.78;;;;;;;7.64;97.21;101578.25;5060776;28;20044;-53
2021/10/09 05:20:56;;;;;;;66.90;36.08;;;;;;;7.60;97.78;101584.44;5059781;28;20040;-54
2021/10/09 05:23:23;;;;;;;64.85;36.15;;;;;;;7.58;97.92;101588.88;5057863;28;20612;-52
2021/10/09 05:25:50;;;;;;;70.10;36.63;;;;;;;7.55;98.36;101584.53;5057123;28;20076;-53
2021/10/09 05:28:20;;;;;;;63.58;35.72;;;;;;;7.53;98.52;101585.47;5056396;28;20055;-52
2021/10/09 05:30:48;;;;;;;;;;;;;;;7.50;98.42;101589.00;5061096;28;20045;-54
2021/10/09 05:33:25;;;;;;;57.65;33.65;;;;;;;7.49;98.59;101584.63;5059678;28;20354;-51
2021/10/09 05:35:52;;;;;;;62.95;35.88;;;;;;;7.48;98.42;101596.06;5058820;28;20057;-52
2021/10/09 05:38:18;;;;;;;66.80;36.92;;;;;;;7.46;98.37;101595.22;5054736;28;20510;-52
2021/10/09 05:40:47;;;;;;;61.33;35.42;;;;;;;7.45;98.88;101603.13;5061012;28;20662;-54
2021/10/09 05:43:15;;;;;;;60.92;36.03;;;;;;;7.42;99.06;101596.13;5059655;28;20052;-52
2021/10/09 05:45:41;;;;;;;65.97;36.88;;;;;;;7.44;98.87;101601.38;5059337;28;20854;-53
2021/10/09 05:48:09;;;;;;;65.18;36.63;;;;;;;7.43;98.97;101607.56;5055477;28;20074;-53
2021/10/09 05:53:41;;;;;;;62.78;35.53;;;;;;;7.43;99.26;101610.19;5054291;28;20060;-54
2021/10/09 05:56:13;;;;;;;66.78;36.17;;;;;;;7.48;99.28;101613.63;5054853;28;20603;-52
2021/10/09 06:50:39;;;;;;;58.22;33.85;;;;;;;8.28;95.99;101666.84;5055997;28;20052;-52
2021/10/09 07:01:21;;;;;;;54.80;31.00;;;;;;;8.62;93.38;101664.50;5053701;28;20528;-52
2021/10/09 07:03:48;;;;;;;48.90;30.70;;;;;;;8.68;93.14;101662.59;5051405;28;20155;-53
2021/10/09 07:06:17;;;;;;;50.25;30.63;;;;;;;8.75;93.40;101673.94;5049421;28;20051;-54
2021/10/09 07:08:43;;;;;;;51.80;30.98;;;;;;;8.87;92.01;101668.41;5054396;28;20066;-53
2021/10/09 07:11:10;;;;;;;54.47;31.92;;;;;;;8.93;91.97;101668.31;5053166;28;20056;-54
2021/10/09 07:13:37;;;;;;;56.38;30.05;;;;;;;9.05;90.19;101668.03;5052798;28;20056;-53
2021/10/09 07:16:03;;;;;;;43.28;27.95;;;;;;;9.17;90.02;101673.97;5053149;28;20055;-52
2021/10/09 07:18:30;;;;;;;44.67;27.05;;;;;;;9.22;89.88;101675.63;5054253;28;20577;-53
2021/10/09 07:20:56;;;;;;;47.72;29.00;;;;;;;9.28;89.21;101678.16;5047841;28;20067;-52
2021/10/09 07:23:27;;;;;;;47.78;27.73;;;;;;;9.35;89.05;101682.38;5051478;28;20048;-52
2021/10/09 07:25:54;;;;;;;44.70;25.98;;;;;;;9.43;88.71;101682.25;5052527;28;20059;-52
2021/10/09 07:28:20;;;;;;;43.28;26.00;;;;;;;9.54;86.62;101693.44;5050223;28;20541;-54
2021/10/09 07:30:47;;;;;;;43.53;26.38;;;;;;;9.62;86.24;101691.47;5041206;28;20048;-52
2021/10/09 07:33:13;;;;;;;41.42;25.83;;;;;;;9.68;85.16;101690.50;5049600;28;20045;-53
2021/10/09 07:35:40;;;;;;;41.70;25.30;;;;;;;9.79;85.22;101696.41;5050972;28;20044;-52
2021/10/09 07:38:06;;;;;;;44.10;26.17;;;;;;;9.99;85.66;101690.63;5050135;28;20040;-53
2021/10/09 07:40:34;;;;;;;41.80;26.20;;;;;;;10.18;85.98;101684.91;5052467;28;20569;-52
2021/10/09 07:43:00;;;;;;;39.75;24.42;;;;;;;10.36;82.70;101691.53;5053561;28;20048;-53
2021/10/09 07:45:27;;;;;;;40.72;25.55;;;;;;;10.39;82.27;101698.53;5051568;28;20052;-53
2021/10/09 07:47:53;;;;;;;38.53;25.98;;;;;;;10.43;80.75;101693.09;5050346;28;20044;-53
2021/10/09 07:50:20;;;;;;;36.50;24.35;;;;;;;10.43;81.31;101693.09;5052069;28;20048;-53
2021/10/09 07:52:46;;;;;;;42.50;24.58;;;;;;;10.48;80.61;101701.78;5047300;28;20063;-53
2021/10/09 07:55:12;;;;;;;38.28;24.90;;;;;;;10.45;80.64;101678.03;5045430;28;20595;-53
2021/10/09 07:57:39;;;;;;;39.72;23.55;;;;;;;10.58;80.89;101694.47;5052759;28;20051;-54
2021/10/09 08:00:06;;;;;;;38.30;23.27;;;;;;;10.64;80.71;101696.97;5045770;28;20045;-54
2021/10/09 08:02:35;;;;;;;42.45;23.35;;;;;;;10.69;79.30;101694.19;5049987;28;20063;-54
2021/10/09 08:05:04;;;;;;;31.25;21.45;;;;;;;10.76;79.82;101693.97;5051677;28;20056;-53
2021/10/09 08:07:31;;;;;;;37.70;22.55;;;;;;;10.87;79.06;101691.91;5046916;28;20401;-51
2021/10/09 08:09:57;;;;;;;33.45;21.83;;;;;;;10.97;78.80;101705.78;5051629;28;20365;-52
2021/10/09 08:12:24;;;;;;;34.80;21.40;;;;;;;11.07;78.28;101696.66;5049126;28;20128;-52
2021/10/09 08:14:50;;;;;;;38.83;22.25;;;;;;;11.16;77.88;101696.41;5051543;28;21127;-53
2021/10/09 08:17:17;;;;;;;34.13;21.77;;;;;;;11.26;76.21;101691.69;5053543;28;20049;-52
2021/10/09 08:19:43;;;;;;;34.17;19.77;;;;;;;11.39;77.65;101693.06;5059161;28;20048;-53
2021/10/09 08:22:11;;;;;;;32.40;20.05;;;;;;;11.81;74.73;101695.34;5049898;28;20064;-52
2021/10/09 08:24:45;;;;;;;31.67;20.92;;;;;;;11.96;73.17;101678.97;5050405;28;20140;-52
2021/10/09 08:40:55;;;;;;;28.67;17.33;;;;;;;14.02;64.19;101689.09;5042888;28;20132;-54
2021/10/09 08:43:22;;;;;;;26.70;19.13;;;;;;;14.14;63.58;101700.22;5047505;28;20045;-52
2021/10/09 08:45:48;;;;;;;28.67;17.67;;;;;;;14.14;62.58;101706.41;5048441;28;20048;-53
2021/10/09 08:48:17;;;;;;;28.17;18.40;;;;;;;14.09;63.26;101700.38;5047436;28;20055;-53
2021/10/09 08:50:45;;;;;;;25.45;18.10;;;;;;;14.02;63.32;101699.75;5052176;28;20417;-55
2021/10/09 08:53:12;;;;;;;25.85;18.27;;;;;;;13.93;63.92;101707.25;5047811;28;20091;-53
2021/10/09 08:55:45;;;;;;;28.45;18.30;;;;;;;13.92;64.43;101700.19;5049801;28;20068;-52
2021/10/09 08:58:29;;;;;;;29.13;17.35;;;;;;;13.96;64.36;101700.03;5043885;28;20052;-53
2021/10/09 09:03:33;;;;;;;24.48;17.20;;;;;;;13.78;65.35;101694.56;5051771;28;20047;-52
2021/10/09 09:06:14;;;;;;;28.27;17.83;;;;;;;13.59;65.09;101695.28;5049936;28;20044;-53
2021/10/09 09:09:15;;;;;;;;;;;;;;;13.50;66.18;101700.09;5035172;28;20056;-58
2021/10/09 09:31:13;;;;;;;24.25;16.17;;;;;;;14.12;63.52;101672.78;5061700;28;20051;-52
2021/10/09 09:41:48;;;;;;;23.08;14.73;;;;;;;15.35;58.36;101657.53;5055800;28;20053;-53
2021/10/09 09:44:18;;;;;;;23.77;15.30;;;;;;;15.82;56.31;101658.91;5051967;28;20053;-53
2021/10/09 09:47:09;;;;;;;23.45;14.15;;;;;;;16.25;54.64;101657.63;5052955;28;20366;-52
2021/10/09 09:49:55;;;;;;;19.52;13.35;;;;;;;16.62;53.35;101656.63;5052301;28;20091;-53
2021/10/09 09:52:23;;;;;;;23.02;13.45;;;;;;;17.08;52.19;101642.56;5052340;28;20048;-53
2021/10/09 09:54:51;;;;;;;20.92;14.07;;;;;;;17.44;51.34;101658.44;5049676;28;20057;-54
2021/10/09 09:57:19;;;;;;;18.38;13.88;;;;;;;17.77;50.30;101658.38;5051107;28;20390;-53
2021/10/09 09:59:47;;;;;;;21.90;13.82;;;;;;;18.10;49.61;101657.38;5052585;28;20401;-54
2021/10/09 10:02:18;;;;;;;19.20;13.50;;;;;;;18.25;49.95;101645.75;5046802;28;20053;-53
2021/10/09 10:04:44;;;;;;;20.77;14.77;;;;;;;18.45;49.21;101650.78;5054849;28;20564;-53
2021/10/09 10:07:11;;;;;;;20.75;15.05;;;;;;;18.83;49.02;101647.63;5048384;28;20126;-54
2021/10/09 10:09:38;;;;;;;18.67;13.55;;;;;;;19.20;47.71;101644.38;5053810;28;20060;-54
2021/10/09 10:12:06;;;;;;;21.02;14.38;;;;;;;19.46;46.93;101641.84;5051464;28;20086;-53
2021/10/09 10:14:33;;;;;;;18.27;13.93;;;;;;;19.39;46.26;101640.50;5052081;28;20052;-53
2021/10/09 10:17:00;;;;;;;18.58;13.80;;;;;;;19.13;46.96;101639.50;5049548;28;20053;-53
2021/10/09 10:19:51;;;;;;;20.52;13.35;;;;;;;19.22;46.19;101641.59;5050620;28;20048;-53
2021/10/09 10:22:39;;;;;;;23.17;13.88;;;;;;;19.17;46.40;101644.59;5054026;28;20048;-53
2021/10/09 10:25:15;;;;;;;15.20;12.23;;;;;;;19.30;45.61;101641.97;5053562;28;20040;-53
2021/10/09 10:27:41;;;;;;;19.90;13.82;;;;;;;19.32;46.45;101647.25;5051017;28;20056;-53
2021/10/09 10:30:13;;;;;;;19.83;12.48;;;;;;;19.71;46.13;101643.84;5055135;28;20040;-52
2021/10/09 10:33:01;;;;;;;20.95;13.68;;;;;;;20.05;44.76;101645.16;5049011;28;20047;-52
2021/10/09 10:35:30;;;;;;;21.33;13.98;;;;;;;19.71;44.83;101644.69;5048758;28;20054;-53
2021/10/09 10:38:03;;;;;;;21.25;13.18;;;;;;;19.64;46.14;101643.41;5050756;28;20048;-53
2021/10/09 10:40:55;;;;;;;18.27;12.65;;;;;;;20.20;44.27;101636.06;5054027;28;20052;-52
2021/10/09 10:43:37;;;;;;;18.75;13.55;;;;;;;20.77;43.67;101633.94;5051612;28;20150;-52
2021/10/09 10:46:25;;;;;;;15.98;11.32;;;;;;;21.39;42.64;101627.75;5057329;28;20079;-55
2021/10/09 10:51:46;;;;;;;17.80;11.20;;;;;;;21.93;40.13;101637.16;5055490;28;20380;-56
2021/10/09 10:56:59;;;;;;;15.18;10.55;;;;;;;21.72;38.47;101630.69;5054336;28;20143;-54
2021/10/09 10:59:33;;;;;;;14.13;9.98;;;;;;;21.90;38.23;101623.88;5049894;28;20045;-52
2021/10/09 11:02:14;;;;;;;13.70;9.60;;;;;;;22.01;38.84;101621.31;5056482;28;20045;-54
2021/10/09 11:04:47;;;;;;;16.05;10.25;;;;;;;22.29;38.13;101620.06;5055458;28;20525;-55
2021/10/09 11:07:16;;;;;;;21.50;10.77;;;;;;;21.66;38.18;101617.63;5049379;28;20052;-52
2021/10/09 11:09:43;;;;;;;15.40;10.02;;;;;;;21.04;40.03;101623.03;5047295;28;20040;-52
2021/10/09 11:12:30;;;;;;;18.55;11.63;;;;;;;20.70;42.54;101619.16;5050425;28;20055;-53
2021/10/09 11:15:14;;;;;;;15.27;11.27;;;;;;;20.73;41.81;101618.09;5052646;28;20055;-54
2021/10/09 11:17:44;;;;;;;14.18;10.10;;;;;;;20.81;40.52;101621.09;5051567;28;20056;-53
2021/10/09 11:20:18;;;;;;;18.08;9.82;;;;;;;20.62;40.67;101616.13;5048662;28;20044;-54
2021/10/09 11:22:48;;;;;;;15.70;10.07;;;;;;;20.18;41.84;101619.16;5051316;28;20048;-58
2021/10/09 11:25:27;;;;;;;12.95;9.50;;;;;;;20.13;42.98;101619.50;5049456;28;20138;-53
2021/10/09 11:27:55;;;;;;;15.30;9.07;;;;;;;19.92;42.84;101616.41;5052341;28;20044;-53
2021/10/09 11:30:24;;;;;;;15.20;9.18;;;;;;;19.63;43.36;101616.63;5051946;28;20048;-52
2021/10/09 11:32:53;;;;;;;13.65;10.15;;;;;;;19.34;44.22;101608.59;5054364;28;20075;-53
2021/10/09 11:35:31;;;;;;;16.10;10.27;;;;;;;19.18;46.01;101607.84;5051138;28;20032;-54
2021/10/09 11:37:58;;;;;;;14.27;9.70;;;;;;;19.16;44.88;101618.69;5045499;28;20255;-53
2021/10/09 11:40:48;;;;;;;13.73;10.13;;;;;;;18.85;44.43;101619.75;5053248;28;20935;-53
2021/10/09 11:43:20;;;;;;;15.30;9.68;;;;;;;18.56;45.47;101608.09;5052743;28;20494;-53
2021/10/09 11:54:28;;;;;;;13.02;8.93;;;;;;;18.49;46.25;101606.72;5049880;28;20074;-53
2021/10/09 11:56:55;;;;;;;17.33;9.75;;;;;;;18.66;45.73;101610.25;5050100;28;20152;-53
2021/10/09 11:59:39;;;;;;;15.18;9.13;;;;;;;18.73;46.57;101609.75;5046920;28;20048;-54
2021/10/09 12:02:07;;;;;;;14.18;9.52;;;;;;;18.86;44.65;101607.19;5048232;28;20056;-53
2021/10/09 12:04:35;;;;;;;14.40;8.60;;;;;;;18.93;45.87;101606.69;5051234;28;20098;-53
2021/10/09 12:07:09;;;;;;;13.60;9.35;;;;;;;19.19;43.98;101599.69;5054155;28;20230;-53
2021/10/09 12:09:38;;;;;;;13.82;9.38;;;;;;;19.10;45.02;101597.59;5049894;28;20059;-53
2021/10/09 12:12:13;;;;;;;12.85;8.30;;;;;;;19.86;43.22;101595.31;5048019;28;20159;-53
2021/10/09 12:14:40;;;;;;;12.43;8.50;;;;;;;20.60;40.31;101596.56;5049344;28;20477;-53
2021/10/09 12:17:07;;;;;;;13.15;8.52;;;;;;;20.89;39.65;101591.81;5055311;28;20060;-53
2021/10/09 12:19:33;;;;;;;10.98;8.07;;;;;;;21.13;39.84;101579.28;5053392;28;20052;-54
2021/10/09 12:22:08;;;;;;;12.60;8.85;;;;;;;21.64;39.39;101584.53;5053449;28;20067;-53
2021/10/09 12:24:46;;;;;;;10.35;7.65;;;;;;;22.05;38.37;101578.75;5055051;28;20056;-54
2021/10/09 12:27:21;;;;;;;10.30;7.57;;;;;;;22.37;36.37;101578.97;5050541;28;20402;-53
2021/10/09 12:29:59;;;;;;;10.70;7.15;;;;;;;22.78;36.06;101575.75;5054073;28;20041;-55
2021/10/09 12:32:28;;;;;;;11.98;7.35;;;;;;;23.40;34.34;101567.09;5047025;28;20595;-55
2021/10/09 12:35:29;;;;;;;10.70;7.20;;;;;;;23.83;32.97;101569.84;5052367;28;20702;-55
2021/10/09 12:38:04;;;;;;;10.30;7.07;;;;;;;23.86;32.97;101566.00;5055264;28;20045;-53
2021/10/09 12:40:47;;;;;;;9.23;7.30;;;;;;;24.06;32.29;101555.22;5056009;28;20776;-54
2021/10/09 12:43:19;;;;;;;11.20;6.65;;;;;;;24.58;32.33;101553.44;5054827;28;20066;-53
2021/10/09 12:45:46;;;;;;;8.40;5.90;;;;;;;25.43;30.47;101555.78;5052635;28;20045;-55
2021/10/09 12:48:18;;;;;;;9.23;6.07;;;;;;;25.11;29.37;101556.00;5048452;28;20075;-56
2021/10/09 12:50:44;;;;;;;8.55;6.05;;;;;;;25.10;29.86;101554.28;5055044;28;20230;-53
2021/10/09 12:53:11;;;;;;;11.23;6.10;;;;;;;24.87;30.39;101553.56;5054121;28;20052;-54
2021/10/09 12:55:39;;;;;;;8.23;6.30;;;;;;;25.13;30.62;101549.44;5057212;28;20059;-53
2021/10/09 12:58:08;;;;;;;11.90;6.50;;;;;;;25.66;29.86;101545.56;5057208;28;20864;-53
2021/10/09 13:00:36;;;;;;;;;;;;;;;25.53;28.95;101537.66;5059559;28;20191;-54
2021/10/09 13:03:04;;;;;;;11.77;6.18;;;;;;;25.35;30.13;101540.19;5051056;28;20047;-53
2021/10/09 13:05:31;;;;;;;11.07;6.65;;;;;;;25.76;28.39;101543.72;5051129;28;20051;-55
2021/10/09 13:08:00;;;;;;;8.32;6.32;;;;;;;26.46;28.82;101531.66;5049846;28;20102;-53
2021/10/09 13:10:32;;;;;;;7.85;6.28;;;;;;;26.77;27.74;101534.97;5056206;28;20053;-53
2021/10/09 13:12:59;;;;;;;9.13;5.68;;;;;;;26.78;27.33;101523.94;5057976;28;20056;-55
2021/10/09 13:15:26;;;;;;;8.40;5.57;;;;;;;26.82;27.02;101519.94;5056769;28;20049;-54
2021/10/09 13:17:52;;;;;;;11.00;6.30;;;;;;;27.01;28.14;101531.75;5052540;28;20489;-53
2021/10/09 13:20:19;;;;;;;8.60;5.55;;;;;;;26.89;26.49;101526.50;5053580;28;20577;-53
2021/10/09 13:22:46;;;;;;;9.27;6.30;;;;;;;26.51;26.54;101523.91;5055641;28;20615;-53
2021/10/09 13:25:29;;;;;;;8.02;5.40;;;;;;;25.14;29.53;101528.63;5057539;28;20500;-55
2021/10/09 13:27:56;;;;;;;7.30;5.55;;;;;;;24.27;30.04;101530.03;5056976;28;20041;-54
2021/10/09 13:30:22;;;;;;;9.25;5.88;;;;;;;23.47;31.04;101521.50;5054939;28;20076;-53
2021/10/09 13:32:49;;;;;;;8.25;5.90;;;;;;;23.09;31.97;101520.13;5062525;28;20053;-53
2021/10/09 13:35:15;;;;;;;9.20;5.40;;;;;;;23.01;31.55;101512.63;5050673;28;20052;-52
2021/10/09 13:37:54;;;;;;;9.35;5.80;;;;;;;23.49;31.63;101504.16;5060229;28;20048;-52
2021/10/09 13:40:21;;;;;;;10.43;5.63;;;;;;;24.54;30.16;101518.66;5055930;28;20041;-53